Time;durP1;ratioP1;P1;durP2;ratioP2;P2;SDS_P1;SDS_P2;PMS_P1;PMS_P2;Temp;Humidity;BMP_temperature;BMP_pressure;BME280_temperature;BME280_humidity;BME280_pressure;Samples;Min_cycle;Max_cycle;Signal;HPM_P1;HPM_P2
2023/03/19 00:00:37;;;;;;;4.82;2.67;;;;;;;6.17;48.28;96889.81;5096617;28;20044;-65
2023/03/19 00:03:05;;;;;;;5.60;3.10;;;;;;;6.18;48.14;96884.56;5096639;28;20055;-62
2023/03/19 00:05:34;;;;;;;4.40;2.70;;;;;;;6.23;47.89;96883.66;5096755;28;20101;-64
2023/03/19 00:08:02;;;;;;;7.93;3.15;;;;;;;6.24;47.93;96877.59;5096729;28;20044;-66
2023/03/19 00:10:29;;;;;;;6.30;3.30;;;;;;;6.21;48.64;96877.63;5096564;28;20105;-65
2023/03/19 00:12:56;;;;;;;6.20;3.88;;;;;;;6.13;48.98;96876.00;5096280;28;20051;-67
2023/03/19 00:15:24;;;;;;;5.32;2.80;;;;;;;6.05;49.12;96881.31;5096426;28;20048;-65
2023/03/19 00:17:53;;;;;;;7.03;3.03;;;;;;;6.00;48.63;96888.28;5096405;28;20109;-66
2023/03/19 00:20:21;;;;;;;6.78;2.70;;;;;;;6.05;47.95;96875.28;5096368;28;20044;-65
2023/03/19 00:22:50;;;;;;;5.80;2.97;;;;;;;5.89;49.16;96870.25;5096337;28;20142;-65
2023/03/19 00:25:17;;;;;;;5.80;2.90;;;;;;;5.82;49.42;96869.47;5096160;28;20057;-64
2023/03/19 00:27:45;;;;;;;6.15;3.08;;;;;;;5.76;49.14;96869.56;5096053;28;20051;-66
2023/03/19 00:30:17;;;;;;;6.07;2.80;;;;;;;5.73;48.83;96867.03;5096076;28;20113;-64
2023/03/19 00:32:44;;;;;;;4.25;2.88;;;;;;;5.71;48.98;96866.16;5096063;28;20101;-65
2023/03/19 00:35:12;;;;;;;6.80;2.97;;;;;;;5.71;48.96;96867.91;5096036;28;20409;-67
2023/03/19 00:37:40;;;;;;;5.32;3.10;;;;;;;5.71;49.38;96863.56;5096079;28;20084;-62
2023/03/19 00:40:11;;;;;;;6.88;2.85;;;;;;;5.73;49.04;96866.16;5095614;28;20486;-64
2023/03/19 00:42:38;;;;;;;4.03;2.63;;;;;;;5.77;48.84;96868.69;5095690;28;20048;-65
2023/03/19 00:45:06;;;;;;;12.48;3.17;;;;;;;5.82;49.08;96868.63;5095963;28;20044;-67
2023/03/19 00:47:33;;;;;;;5.22;3.03;;;;;;;5.84;49.05;96863.41;5095908;28;20131;-63
2023/03/19 00:50:01;;;;;;;7.40;3.42;;;;;;;5.92;48.66;96871.94;5095503;28;20456;-66
2023/03/19 00:52:28;;;;;;;7.10;3.22;;;;;;;5.94;48.68;96868.44;5095653;28;20055;-67
2023/03/19 00:54:55;;;;;;;4.47;2.50;;;;;;;5.97;48.49;96866.69;5095789;28;20398;-64
2023/03/19 00:57:23;;;;;;;6.18;2.97;;;;;;;5.97;48.86;96866.69;5095658;28;20476;-67
2023/03/19 00:59:51;;;;;;;13.05;5.35;;;;;;;5.96;48.84;96864.97;5095620;28;20157;-66
2023/03/19 01:02:18;;;;;;;5.35;3.05;;;;;;;5.98;49.10;96873.59;5095652;28;20082;-64
2023/03/19 01:04:47;;;;;;;5.97;3.33;;;;;;;5.94;49.15;96865.00;5095522;28;20047;-64
2023/03/19 01:07:15;;;;;;;4.90;2.90;;;;;;;5.88;49.15;96854.69;5095423;28;20127;-65
2023/03/19 01:09:42;;;;;;;4.65;3.03;;;;;;;5.94;49.37;96871.03;5095374;28;20056;-66
2023/03/19 01:12:09;;;;;;;6.40;2.75;;;;;;;6.00;49.61;96875.31;5095289;28;20498;-67
2023/03/19 01:14:38;;;;;;;5.40;2.97;;;;;;;5.98;49.48;96874.47;5095407;28;20048;-66
2023/03/19 01:17:05;;;;;;;9.93;2.97;;;;;;;5.94;49.79;96876.22;5095291;28;20040;-66
2023/03/19 01:19:32;;;;;;;6.07;2.80;;;;;;;5.96;49.64;96873.59;5095165;28;20052;-64
2023/03/19 01:21:59;;;;;;;5.32;3.05;;;;;;;6.00;49.70;96870.13;5095238;28;20132;-63
2023/03/19 01:24:30;;;;;;;5.18;3.13;;;;;;;5.98;49.85;96865.78;5095106;28;20489;-64
2023/03/19 01:26:57;;;;;;;6.18;2.65;;;;;;;5.94;50.47;96867.59;5095097;28;20047;-67
2023/03/19 01:29:24;;;;;;;3.60;2.88;;;;;;;5.79;50.56;96866.94;5095005;28;20048;-65
2023/03/19 01:31:52;;;;;;;5.07;3.35;;;;;;;5.82;51.17;96866.88;5095036;28;20490;-67
2023/03/19 01:34:19;;;;;;;5.00;3.08;;;;;;;5.79;51.73;96853.09;5094992;28;20131;-63
2023/03/19 01:36:47;;;;;;;6.13;2.90;;;;;;;5.74;52.22;96863.53;5094930;28;20101;-66
2023/03/19 01:39:15;;;;;;;4.60;2.78;;;;;;;5.72;52.63;96862.69;5094839;28;20087;-64
2023/03/19 01:41:42;;;;;;;6.30;2.92;;;;;;;5.65;53.33;96845.47;5094760;28;20110;-67
2023/03/19 01:44:24;;;;;;;4.85;3.00;;;;;;;5.67;53.38;96852.38;5094764;28;20048;-66
2023/03/19 01:46:53;;;;;;;6.72;4.75;;;;;;;5.71;53.56;96845.41;5094618;28;20051;-64
2023/03/19 01:49:22;;;;;;;5.30;3.10;;;;;;;5.73;53.56;96846.25;5094220;28;20075;-64
2023/03/19 01:51:51;;;;;;;6.97;3.53;;;;;;;5.71;54.09;96841.94;5093922;28;20044;-63
2023/03/19 01:54:21;;;;;;;6.32;2.90;;;;;;;5.75;53.71;96851.41;5094511;28;20052;-66
2023/03/19 01:56:51;;;;;;;8.23;2.60;;;;;;;5.75;53.86;96848.81;5094494;28;20098;-66
2023/03/19 01:59:23;;;;;;;4.35;2.20;;;;;;;5.81;54.05;96849.59;5094410;28;20044;-65
2023/03/19 02:01:55;;;;;;;5.63;2.80;;;;;;;5.80;54.49;96853.06;5094475;28;20047;-64
2023/03/19 02:04:26;;;;;;;4.85;3.00;;;;;;;5.84;54.75;96863.41;5094352;28;20494;-65
2023/03/19 02:06:54;;;;;;;8.63;3.38;;;;;;;5.84;55.24;96859.06;5094299;28;20091;-66
2023/03/19 02:09:22;;;;;;;4.97;2.85;;;;;;;5.89;54.80;96866.78;5094242;28;20125;-68
2023/03/19 02:11:50;;;;;;;5.25;2.53;;;;;;;5.96;54.51;96873.59;5094175;28;20516;-67
2023/03/19 02:14:18;;;;;;;4.93;2.83;;;;;;;6.00;54.42;96867.50;5094147;28;20130;-64
2023/03/19 02:16:45;;;;;;;5.38;3.03;;;;;;;5.92;54.83;96859.81;5094227;28;20127;-67
2023/03/19 02:19:17;;;;;;;5.00;2.60;;;;;;;5.98;55.03;96852.81;5094115;28;20493;-63
2023/03/19 02:21:45;;;;;;;3.95;2.70;;;;;;;6.01;54.98;96850.16;5094114;28;20048;-67
2023/03/19 02:24:17;;;;;;;4.03;2.80;;;;;;;5.99;55.19;96854.56;5093978;28;20056;-65
2023/03/19 02:26:47;;;;;;;5.30;3.25;;;;;;;5.96;55.80;96857.19;5094006;28;20093;-64
2023/03/19 02:29:14;;;;;;;6.07;2.97;;;;;;;5.91;55.91;96854.66;5094063;28;20052;-66
2023/03/19 02:31:41;;;;;;;3.58;2.45;;;;;;;5.91;55.81;96860.72;5093870;28;20078;-64
2023/03/19 02:34:35;;;;;;;5.18;2.90;;;;;;;5.97;55.59;96858.91;5093752;28;20056;-63
2023/03/19 02:37:06;;;;;;;4.57;2.60;;;;;;;6.03;55.33;96864.88;5093795;28;20040;-63
2023/03/19 02:39:40;;;;;;;3.80;2.75;;;;;;;6.10;55.38;96867.38;5093775;28;20040;-63
2023/03/19 02:42:10;;;;;;;9.10;3.03;;;;;;;6.16;54.85;96870.78;5093754;28;20083;-63
2023/03/19 02:44:37;;;;;;;4.43;2.60;;;;;;;6.26;54.70;96868.03;5093668;28;20048;-66
2023/03/19 02:47:04;;;;;;;5.22;2.75;;;;;;;6.29;54.69;96870.59;5093559;28;20044;-67
2023/03/19 02:49:31;;;;;;;4.07;2.60;;;;;;;6.32;54.59;96867.91;5093355;28;20501;-65
2023/03/19 02:51:58;;;;;;;5.32;2.72;;;;;;;6.36;53.93;96871.34;5093458;28;20048;-61
2023/03/19 02:54:26;;;;;;;7.88;3.10;;;;;;;6.38;53.72;96870.44;5093313;28;20048;-65
2023/03/19 02:56:53;;;;;;;7.07;2.50;;;;;;;6.38;53.73;96873.03;5093554;28;20044;-68
2023/03/19 02:59:21;;;;;;;4.88;2.40;;;;;;;6.42;53.37;96866.88;5093475;28;20127;-62
2023/03/19 03:01:49;;;;;;;4.15;2.63;;;;;;;6.43;53.13;96873.81;5093524;28;20517;-65
2023/03/19 03:04:16;;;;;;;4.53;2.80;;;;;;;6.47;53.19;96877.22;5093378;28;20729;-66
2023/03/19 03:06:44;;;;;;;4.18;2.65;;;;;;;6.50;53.43;96878.94;5093316;28;20466;-66
2023/03/19 03:09:11;;;;;;;4.22;2.65;;;;;;;6.52;53.15;96885.81;5093240;28;20047;-67
2023/03/19 03:11:40;;;;;;;5.40;2.28;;;;;;;6.49;53.81;96888.44;5093237;28;20040;-68
2023/03/19 03:14:07;;;;;;;5.68;2.55;;;;;;;6.47;53.75;96878.97;5093225;28;20087;-61
2023/03/19 03:16:36;;;;;;;5.05;2.60;;;;;;;6.42;53.74;96889.44;5093325;28;20044;-66
2023/03/19 03:19:04;;;;;;;3.67;2.70;;;;;;;6.41;53.90;96888.56;5093226;28;20048;-67
2023/03/19 03:21:31;;;;;;;4.10;2.30;;;;;;;6.37;54.68;96892.09;5093115;28;20055;-65
2023/03/19 03:23:58;;;;;;;5.30;2.50;;;;;;;6.31;54.27;96895.66;5093014;28;20495;-68
2023/03/19 03:26:25;;;;;;;4.18;2.58;;;;;;;6.30;54.45;96893.09;5093103;28;20135;-62
2023/03/19 03:28:53;;;;;;;5.95;3.25;;;;;;;6.00;55.15;96892.63;5093213;28;20459;-67
2023/03/19 03:31:20;;;;;;;4.63;2.92;;;;;;;5.95;55.10;96887.47;5093054;28;20091;-64
2023/03/19 03:33:49;;;;;;;4.32;2.60;;;;;;;5.97;55.57;96893.53;5093001;28;20105;-65
2023/03/19 03:36:16;;;;;;;4.30;2.95;;;;;;;5.95;55.58;96890.06;5092948;28;20059;-64
2023/03/19 03:38:43;;;;;;;6.70;3.15;;;;;;;5.96;55.22;96893.53;5092915;28;20051;-65
2023/03/19 03:41:10;;;;;;;6.10;3.08;;;;;;;5.97;54.91;96903.03;5092856;28;20048;-63
2023/03/19 03:43:38;;;;;;;6.50;3.20;;;;;;;6.04;54.83;96904.72;5092895;28;20391;-67
2023/03/19 03:46:06;;;;;;;6.30;3.35;;;;;;;6.10;54.70;96902.03;5092990;28;20080;-65
2023/03/19 03:48:33;;;;;;;4.72;2.90;;;;;;;6.17;54.63;96910.59;5092859;28;20044;-66
2023/03/19 03:51:03;;;;;;;5.82;2.67;;;;;;;6.16;53.91;96908.88;5092610;28;20052;-65
2023/03/19 03:53:30;;;;;;;6.30;2.92;;;;;;;6.17;54.11;96906.25;5093005;28;20056;-67
2023/03/19 03:55:57;;;;;;;5.03;2.75;;;;;;;6.20;54.33;96915.72;5092850;28;20119;-66
2023/03/19 03:58:24;;;;;;;5.68;3.15;;;;;;;6.17;54.21;96908.00;5092737;28;20405;-62
2023/03/19 04:00:53;;;;;;;4.75;2.90;;;;;;;6.19;54.14;96914.03;5092675;28;20048;-62
2023/03/19 04:03:20;;;;;;;5.35;2.95;;;;;;;6.18;54.42;96914.91;5092718;28;20044;-64
2023/03/19 04:05:47;;;;;;;3.92;2.70;;;;;;;6.25;54.32;96918.25;5092867;28;20671;-67
2023/03/19 04:08:16;;;;;;;3.25;2.30;;;;;;;6.28;54.41;96919.09;5092630;28;20127;-67
2023/03/19 04:10:44;;;;;;;4.55;2.70;;;;;;;6.23;54.48;96913.09;5092687;28;20079;-66
2023/03/19 04:13:12;;;;;;;5.65;3.03;;;;;;;6.13;54.81;96914.97;5092546;28;20505;-68
2023/03/19 04:15:39;;;;;;;3.38;2.35;;;;;;;6.10;55.07;96914.16;5095045;28;20044;-64
2023/03/19 04:18:06;;;;;;;4.50;2.00;;;;;;;6.09;54.91;96918.50;5096514;28;20048;-63
2023/03/19 04:20:34;;;;;;;4.60;2.92;;;;;;;6.08;55.07;96919.34;5096397;28;20131;-65
2023/03/19 04:23:02;;;;;;;7.97;3.03;;;;;;;6.09;55.13;96926.28;5096271;28;20048;-65
2023/03/19 04:25:31;;;;;;;5.80;3.05;;;;;;;6.09;54.98;96933.22;5096364;28;20135;-64
2023/03/19 04:27:58;;;;;;;4.38;2.60;;;;;;;6.13;54.93;96929.69;5096319;28;20127;-67
2023/03/19 04:30:25;;;;;;;4.68;2.38;;;;;;;6.15;55.13;96931.41;5096250;28;20052;-65
2023/03/19 04:32:52;;;;;;;3.78;2.65;;;;;;;6.15;54.71;96922.75;5096004;28;20052;-65
2023/03/19 04:35:20;;;;;;;5.68;2.72;;;;;;;6.14;55.28;96921.88;5096161;28;20047;-65
2023/03/19 04:37:47;;;;;;;5.35;2.50;;;;;;;6.04;55.43;96926.34;5096059;28;20055;-66
2023/03/19 04:40:15;;;;;;;6.35;2.45;;;;;;;6.05;55.56;96935.03;5095932;28;20048;-65
2023/03/19 04:42:44;;;;;;;6.10;2.92;;;;;;;6.02;55.76;96933.25;5095986;28;20062;-66
2023/03/19 04:45:12;;;;;;;4.53;2.60;;;;;;;5.96;55.93;96932.50;5095919;28;20517;-62
2023/03/19 04:47:39;;;;;;;5.57;3.20;;;;;;;5.89;56.13;96931.72;5095961;28;20055;-65
2023/03/19 04:50:08;;;;;;;6.45;3.00;;;;;;;5.81;56.17;96931.81;5095509;28;20056;-64
2023/03/19 04:52:36;;;;;;;6.82;3.30;;;;;;;5.82;56.28;96928.34;5095894;28;20056;-64
2023/03/19 04:55:03;;;;;;;4.97;3.00;;;;;;;5.85;56.15;96930.03;5095775;28;20048;-65
2023/03/19 04:57:30;;;;;;;5.72;3.85;;;;;;;5.96;55.80;96932.50;5095726;28;20072;-66
2023/03/19 04:59:59;;;;;;;5.85;3.40;;;;;;;6.00;55.82;96929.84;5095645;28;20055;-65
2023/03/19 05:02:27;;;;;;;6.30;2.85;;;;;;;5.98;55.38;96931.59;5095736;28;20044;-66
2023/03/19 05:04:54;;;;;;;4.80;2.67;;;;;;;5.94;55.34;96929.91;5095576;28;20055;-64
2023/03/19 05:07:21;;;;;;;5.88;3.33;;;;;;;5.88;55.86;96933.47;5095430;28;20051;-66
2023/03/19 05:09:48;;;;;;;8.18;4.10;;;;;;;5.80;55.77;96933.56;5095550;28;20480;-64
2023/03/19 05:12:15;;;;;;;5.20;3.40;;;;;;;5.81;56.01;96937.84;5095557;28;20051;-65
2023/03/19 05:14:43;;;;;;;5.78;3.75;;;;;;;5.85;56.40;96932.63;5095323;28;20135;-64
2023/03/19 05:17:14;;;;;;;6.82;3.58;;;;;;;6.44;54.84;96935.31;5095408;28;20084;-64
2023/03/19 05:19:44;;;;;;;;;;;;;;;7.30;52.75;96941.69;5095728;28;20047;-63
2023/03/19 05:22:11;;;;;;;4.40;3.00;;;;;;;8.38;50.15;96942.13;5095206;28;19920;-64
2023/03/19 05:24:38;;;;;;;5.60;3.40;;;;;;;9.63;46.76;96946.88;5095239;28;20051;-64
2023/03/19 05:27:06;;;;;;;3.97;3.08;;;;;;;10.64;44.62;96940.47;5094065;28;20490;-65
2023/03/19 05:29:33;;;;;;;6.05;3.83;;;;;;;11.53;42.56;96945.38;5095071;28;20048;-65
2023/03/19 05:32:02;;;;;;;9.63;4.28;;;;;;;11.80;41.48;96949.69;5094924;28;20044;-65
2023/03/19 05:34:31;;;;;;;5.45;3.60;;;;;;;11.70;41.77;96951.78;5094855;28;20052;-64
2023/03/19 05:36:59;;;;;;;6.20;3.17;;;;;;;11.77;41.62;96950.63;5094810;28;20055;-65
2023/03/19 05:39:26;;;;;;;4.65;2.92;;;;;;;12.36;40.91;96951.13;5094913;28;20040;-63
2023/03/19 05:41:54;;;;;;;5.00;2.55;;;;;;;13.12;38.56;96949.00;5094750;28;20052;-65
2023/03/19 05:44:22;;;;;;;3.95;3.17;;;;;;;13.74;38.03;96954.28;5094780;28;20051;-63
2023/03/19 05:46:49;;;;;;;3.13;2.70;;;;;;;14.64;36.56;96953.75;5094686;28;20050;-63
2023/03/19 05:49:16;;;;;;;4.80;3.30;;;;;;;14.36;36.62;96960.31;5094389;28;20145;-64
2023/03/19 05:51:45;;;;;;;5.57;3.47;;;;;;;14.62;36.74;96953.81;5094524;28;20092;-65
2023/03/19 05:54:15;;;;;;;4.32;2.80;;;;;;;14.92;35.74;96949.78;5094298;28;20044;-64
2023/03/19 05:56:45;;;;;;;4.00;2.95;;;;;;;15.40;35.74;96951.81;5094317;28;20048;-65
2023/03/19 05:59:12;;;;;;;4.70;2.67;;;;;;;15.44;34.88;96953.38;5094413;28;20055;-63
2023/03/19 06:01:40;;;;;;;2.38;1.40;;;;;;;15.84;34.75;96949.59;5094424;28;20048;-65
2023/03/19 06:04:09;;;;;;;5.55;2.90;;;;;;;15.77;34.39;96951.69;5094423;28;20048;-65
2023/03/19 06:06:36;;;;;;;5.97;2.92;;;;;;;15.52;34.88;96951.19;5094294;28;20044;-64
2023/03/19 06:09:05;;;;;;;6.80;3.15;;;;;;;15.28;35.43;96953.28;5094429;28;20105;-63
2023/03/19 06:11:34;;;;;;;5.30;2.80;;;;;;;15.22;35.65;96954.47;5094115;28;20551;-63
2023/03/19 06:14:01;;;;;;;5.18;2.80;;;;;;;15.26;35.63;96950.75;5094182;28;20500;-63
2023/03/19 06:16:28;;;;;;;3.58;2.50;;;;;;;15.09;35.99;96943.69;5094287;28;20044;-64
2023/03/19 06:18:55;;;;;;;4.57;2.80;;;;;;;15.39;35.87;96945.69;5094148;28;20055;-62
2023/03/19 06:21:24;;;;;;;5.28;2.80;;;;;;;15.74;35.18;96941.31;5094008;28;20044;-62
2023/03/19 06:23:52;;;;;;;3.10;2.78;;;;;;;16.26;34.62;96945.59;5094018;28;20055;-63
2023/03/19 06:26:20;;;;;;;3.58;2.55;;;;;;;16.68;34.36;96942.47;5094063;28;20505;-63
2023/03/19 06:28:48;;;;;;;4.35;2.50;;;;;;;17.31;32.66;96960.94;5094014;28;20080;-63
2023/03/19 06:31:15;;;;;;;4.82;2.67;;;;;;;17.49;32.21;96948.41;5093926;28;20084;-63
2023/03/19 06:33:42;;;;;;;4.82;2.60;;;;;;;17.27;32.03;96951.47;5093838;28;20510;-62
2023/03/19 06:36:10;;;;;;;3.30;2.42;;;;;;;17.57;32.60;96949.78;5093869;28;20040;-64
2023/03/19 06:38:37;;;;;;;3.22;2.28;;;;;;;18.11;31.34;96949.16;5093564;28;20132;-62
2023/03/19 06:41:05;;;;;;;4.13;2.20;;;;;;;18.55;30.74;96954.38;5093717;28;20048;-64
2023/03/19 06:43:35;;;;;;;3.00;2.30;;;;;;;19.27;29.60;96955.09;5093565;28;20048;-63
2023/03/19 06:46:03;;;;;;;3.92;2.58;;;;;;;20.14;28.57;96966.97;5093629;28;20131;-63
2023/03/19 06:48:31;;;;;;;6.43;2.83;;;;;;;20.43;29.22;96958.69;5093551;28;20537;-63
2023/03/19 06:51:00;;;;;;;3.70;2.40;;;;;;;20.26;28.75;96967.91;5093297;28;20056;-63
2023/03/19 06:53:28;;;;;;;3.53;2.47;;;;;;;19.79;28.92;96966.63;5093438;28;20040;-63
2023/03/19 06:55:55;;;;;;;7.03;2.30;;;;;;;19.66;29.90;96966.59;5093382;28;20048;-64
2023/03/19 06:58:23;;;;;;;3.40;2.55;;;;;;;19.63;29.65;96964.16;5093381;28;20048;-64
2023/03/19 07:00:52;;;;;;;3.95;2.70;;;;;;;19.49;29.75;96962.44;5093367;28;20043;-64
2023/03/19 07:03:21;;;;;;;3.28;2.30;;;;;;;19.23;29.96;96962.41;5093348;28;20048;-63
2023/03/19 07:05:50;;;;;;;5.63;2.65;;;;;;;19.54;29.08;96959.50;5093193;28;20058;-62
2023/03/19 07:08:18;;;;;;;4.57;2.40;;;;;;;19.05;30.21;96964.44;5093389;28;20097;-64
2023/03/19 07:10:45;;;;;;;3.95;2.55;;;;;;;19.04;30.74;96968.03;5093506;28;20071;-62
2023/03/19 07:13:13;;;;;;;4.15;2.10;;;;;;;18.77;31.07;96959.16;5093222;28;20052;-63
2023/03/19 07:15:40;;;;;;;3.20;2.28;;;;;;;18.50;31.19;96964.41;5093160;28;20152;-62
2023/03/19 07:18:09;;;;;;;3.42;2.45;;;;;;;18.18;32.38;96969.00;5093302;28;20048;-64
2023/03/19 07:20:36;;;;;;;3.90;2.45;;;;;;;18.11;33.11;96959.72;5093149;28;20052;-64
2023/03/19 07:23:03;;;;;;;4.90;2.17;;;;;;;18.13;32.72;96960.50;5093039;28;20502;-63
2023/03/19 07:25:32;;;;;;;3.55;2.50;;;;;;;18.46;32.82;96960.25;5093026;28;20044;-65
2023/03/19 07:27:59;;;;;;;3.40;2.05;;;;;;;18.91;31.83;96952.09;5093076;28;20052;-63
2023/03/19 07:30:26;;;;;;;2.85;1.88;;;;;;;19.13;30.92;96958.66;5093106;28;20105;-64
2023/03/19 07:32:55;;;;;;;3.05;1.98;;;;;;;18.65;31.88;96958.16;5092954;28;20040;-65
2023/03/19 07:35:24;;;;;;;2.70;2.05;;;;;;;18.43;31.77;96951.56;5092962;28;20386;-64
2023/03/19 07:37:52;;;;;;;3.58;2.00;;;;;;;18.49;32.58;96949.47;5092953;28;20044;-65
2023/03/19 07:40:19;;;;;;;4.05;2.40;;;;;;;18.40;32.71;96942.97;5092959;28;20127;-63
2023/03/19 07:42:46;;;;;;;6.03;2.28;;;;;;;18.31;32.19;96944.41;5093083;28;20047;-65
2023/03/19 07:45:14;;;;;;;2.97;2.10;;;;;;;18.33;32.80;96942.50;5092950;28;20048;-63
2023/03/19 07:47:42;;;;;;;2.70;2.22;;;;;;;18.09;34.97;96951.00;5092971;28;20054;-62
2023/03/19 07:50:10;;;;;;;4.95;2.22;;;;;;;17.97;33.33;96944.66;5094344;28;20052;-64
2023/03/19 07:52:39;;;;;;;2.90;1.83;;;;;;;18.10;31.87;96947.47;5096990;28;20048;-63
2023/03/19 07:55:07;;;;;;;2.40;1.77;;;;;;;17.99;31.97;96940.16;5096970;28;20043;-63
2023/03/19 07:57:35;;;;;;;3.17;2.15;;;;;;;17.64;33.82;96948.44;5096841;28;20485;-65
2023/03/19 08:00:02;;;;;;;2.83;1.83;;;;;;;17.53;33.45;96949.09;5096822;28;20046;-63
2023/03/19 08:02:30;;;;;;;1.60;1.50;;;;;;;17.52;32.68;96947.41;5096816;28;20047;-62
2023/03/19 08:04:57;;;;;;;2.35;1.60;;;;;;;17.09;34.10;96942.81;5096669;28;20083;-64
2023/03/19 08:07:25;;;;;;;2.92;1.70;;;;;;;16.96;35.04;96938.25;5096683;28;20123;-64
2023/03/19 08:09:55;;;;;;;2.30;1.55;;;;;;;17.21;33.63;96941.25;5096608;28;20482;-65
2023/03/19 08:12:22;;;;;;;;;;;;;;;17.26;33.66;96941.84;5097147;28;20040;-63
2023/03/19 08:14:50;;;;;;;1.55;1.40;;;;;;;17.23;33.06;96944.69;5096436;28;20361;-65
2023/03/19 08:17:17;;;;;;;1.90;1.63;;;;;;;17.00;34.34;96934.47;5096478;28;20048;-65
2023/03/19 08:19:47;;;;;;;2.03;1.70;;;;;;;17.04;34.01;96937.81;5096544;28;20052;-66
2023/03/19 08:22:15;;;;;;;2.75;1.80;;;;;;;16.79;34.26;96939.19;5096664;28;20050;-64
2023/03/19 08:24:44;;;;;;;2.40;1.73;;;;;;;16.15;34.69;96942.69;5096493;28;20048;-66
2023/03/19 08:27:17;;;;;;;2.75;1.80;;;;;;;15.73;35.55;96935.19;5096328;28;20052;-65
2023/03/19 08:29:45;;;;;;;1.90;1.70;;;;;;;15.76;36.96;96940.31;5096343;28;20090;-66
2023/03/19 08:32:13;;;;;;;2.92;1.77;;;;;;;15.71;36.66;96930.94;5096158;28;20052;-64
2023/03/19 08:34:40;;;;;;;2.42;1.92;;;;;;;15.48;36.44;96930.34;5096021;28;20452;-66
2023/03/19 08:37:07;;;;;;;2.10;1.90;;;;;;;15.48;36.51;96931.22;5096200;28;20052;-65
2023/03/19 08:39:34;;;;;;;1.77;1.67;;;;;;;15.43;36.56;96932.34;5096114;28;20048;-64
2023/03/19 08:42:02;;;;;;;1.95;1.80;;;;;;;15.55;38.16;96926.47;5096029;28;20086;-63
2023/03/19 08:44:32;;;;;;;4.72;1.80;;;;;;;15.68;36.41;96923.19;5096004;28;20044;-63
2023/03/19 08:47:00;;;;;;;3.88;1.90;;;;;;;15.88;38.53;96916.84;5095881;28;20044;-64
2023/03/19 08:49:27;;;;;;;1.75;1.60;;;;;;;15.95;38.79;96922.66;5095708;28;20514;-65
2023/03/19 08:51:55;;;;;;;2.10;1.83;;;;;;;16.00;35.32;96918.00;5095952;28;20481;-66
2023/03/19 08:54:22;;;;;;;1.95;1.50;;;;;;;15.88;36.69;96917.69;5095674;28;20482;-63
2023/03/19 08:56:49;;;;;;;2.58;1.70;;;;;;;16.10;36.45;96911.28;5095823;28;20080;-66
2023/03/19 08:59:18;;;;;;;2.83;1.80;;;;;;;16.20;34.76;96916.94;5095845;28;20126;-65
2023/03/19 09:01:52;;;;;;;2.75;2.00;;;;;;;15.71;36.71;96912.47;5095478;28;20041;-65
2023/03/19 09:04:21;;;;;;;1.67;1.55;;;;;;;15.75;36.14;96908.75;5095513;28;20048;-63
2023/03/19 09:06:50;;;;;;;3.08;1.60;;;;;;;15.96;37.86;96909.41;5095629;28;20048;-64
2023/03/19 09:09:18;;;;;;;2.42;1.85;;;;;;;16.40;36.31;96907.03;5095414;28;20052;-67
2023/03/19 09:11:46;;;;;;;2.28;1.40;;;;;;;16.41;34.64;96908.75;5095558;28;20044;-63
2023/03/19 09:14:15;;;;;;;1.45;1.35;;;;;;;16.22;36.04;96896.56;5095250;28;20055;-65
2023/03/19 09:16:43;;;;;;;2.50;1.60;;;;;;;16.33;34.93;96903.03;5095443;28;20485;-62
2023/03/19 09:19:13;;;;;;;1.90;1.73;;;;;;;15.88;35.76;96904.50;5095393;28;20399;-63
2023/03/19 09:21:41;;;;;;;1.77;1.60;;;;;;;15.46;37.15;96898.78;5095345;28;20048;-63
2023/03/19 09:24:09;;;;;;;1.55;1.40;;;;;;;15.68;36.47;96891.53;5095338;28;20119;-66
2023/03/19 09:26:37;;;;;;;1.70;1.42;;;;;;;15.84;35.77;96894.19;5095100;28;20044;-62
2023/03/19 09:29:13;;;;;;;2.05;1.60;;;;;;;16.09;36.31;96896.41;5094913;28;20067;-64
2023/03/19 09:31:45;;;;;;;2.42;1.75;;;;;;;16.51;37.45;96890.59;5094972;28;20108;-62
2023/03/19 09:34:15;;;;;;;2.00;1.75;;;;;;;16.76;37.57;96891.81;5094984;28;20537;-63
2023/03/19 09:36:44;;;;;;;3.05;1.80;;;;;;;17.07;37.34;96886.59;5094818;28;20055;-65
2023/03/19 09:39:12;;;;;;;2.13;1.60;;;;;;;17.32;36.25;96890.41;5094911;28;20471;-65
2023/03/19 09:41:58;;;;;;;3.22;1.65;;;;;;;17.15;36.60;96885.19;5094865;28;20050;-64
2023/03/19 09:44:31;;;;;;;2.22;2.03;;;;;;;17.28;35.93;96884.47;5094743;28;20050;-65
2023/03/19 09:47:08;;;;;;;2.38;1.52;;;;;;;17.33;35.37;96876.25;5094890;28;20051;-64
2023/03/19 09:49:40;;;;;;;2.22;1.70;;;;;;;16.90;34.97;96869.91;5094520;28;20054;-65
2023/03/19 09:52:21;;;;;;;2.00;1.77;;;;;;;17.00;36.12;96871.06;5094688;28;20050;-64
2023/03/19 09:54:51;;;;;;;2.78;2.13;;;;;;;17.20;35.86;96863.78;5094747;28;20391;-63
2023/03/19 09:57:19;;;;;;;4.80;1.70;;;;;;;17.15;34.52;96864.03;5094724;28;20080;-62
2023/03/19 09:59:48;;;;;;;2.70;1.85;;;;;;;17.11;34.81;96851.97;5094600;28;20090;-65
2023/03/19 10:02:40;;;;;;;2.58;1.85;;;;;;;16.99;34.75;96855.28;5094512;28;20040;-65
2023/03/19 10:05:19;;;;;;;1.77;1.65;;;;;;;16.84;36.07;96847.34;5094333;28;20132;-63
2023/03/19 10:08:11;;;;;;;2.22;1.60;;;;;;;16.98;34.73;96849.16;5094460;28;20094;-63
2023/03/19 10:11:01;;;;;;;3.45;1.70;;;;;;;17.17;34.97;96848.09;5094250;28;20048;-63
2023/03/19 10:13:46;;;;;;;1.50;1.35;;;;;;;16.98;35.01;96848.31;5093711;28;20075;-64
2023/03/19 10:16:20;;;;;;;2.67;1.73;;;;;;;17.01;34.81;96846.31;5093789;28;20084;-65
2023/03/19 10:18:51;;;;;;;2.92;1.90;;;;;;;17.05;35.66;96845.22;5093896;28;20091;-66
2023/03/19 10:21:29;;;;;;;2.33;1.65;;;;;;;17.07;36.79;96836.38;5094102;28;20040;-64
2023/03/19 10:24:01;;;;;;;2.13;1.92;;;;;;;17.35;35.76;96832.06;5093254;28;20393;-63
2023/03/19 10:26:33;;;;;;;2.00;1.60;;;;;;;17.74;34.94;96829.69;5093403;28;20436;-66
2023/03/19 10:29:07;;;;;;;2.28;1.58;;;;;;;17.71;32.98;96829.88;5093805;28;20059;-59
2023/03/19 10:31:44;;;;;;;2.28;1.58;;;;;;;17.75;32.57;96824.31;5105681;28;20051;-67
2023/03/19 10:34:30;;;;;;;2.63;1.63;;;;;;;17.59;33.07;96820.91;5073544;28;20123;-64
2023/03/19 10:37:04;;;;;;;2.47;1.50;;;;;;;17.29;34.95;96820.06;5080381;28;20052;-57
2023/03/19 10:39:37;;;;;;;5.22;1.85;;;;;;;17.43;34.71;96819.25;5093847;28;20055;-60
2023/03/19 10:42:21;;;;;;;2.00;1.50;;;;;;;17.70;34.00;96804.38;5093232;28;20102;-65
2023/03/19 10:44:52;;;;;;;4.70;1.50;;;;;;;17.87;34.32;96801.50;5093825;28;20105;-58
2023/03/19 10:47:21;;;;;;;3.25;1.75;;;;;;;17.92;32.71;96796.78;5093808;28;20387;-60
2023/03/19 10:49:51;;;;;;;1.80;1.60;;;;;;;17.73;34.21;96796.25;5093564;28;20040;-58
2023/03/19 10:52:28;;;;;;;1.50;1.33;;;;;;;17.98;32.75;96781.47;5093319;28;20044;-59
2023/03/19 10:55:01;;;;;;;2.10;1.70;;;;;;;17.96;32.18;96788.63;5093539;28;20050;-63
2023/03/19 10:57:30;;;;;;;1.75;1.42;;;;;;;17.85;31.86;96774.28;5093178;28;20498;-58
2023/03/19 11:00:03;;;;;;;1.52;1.40;;;;;;;17.74;32.29;96780.28;5093659;28;20044;-57
2023/03/19 11:02:32;;;;;;;2.03;1.30;;;;;;;17.62;32.55;96766.03;5093526;28;20040;-62
2023/03/19 11:05:24;;;;;;;2.10;1.63;;;;;;;17.71;34.48;96764.63;5093322;28;20148;-62
2023/03/19 11:07:57;;;;;;;1.85;1.58;;;;;;;17.66;34.41;96764.91;5093456;28;20480;-62
2023/03/19 11:10:28;;;;;;;3.35;1.75;;;;;;;17.69;35.41;96753.25;5093286;28;20059;-63
2023/03/19 11:12:59;;;;;;;3.58;1.63;;;;;;;17.93;34.53;96750.00;5073131;28;20048;-58
2023/03/19 11:15:34;;;;;;;2.05;1.60;;;;;;;18.02;33.79;96751.19;5073055;28;20165;-53
2023/03/19 11:18:07;;;;;;;2.35;1.70;;;;;;;18.00;35.86;96747.81;5073061;28;20083;-56
2023/03/19 11:20:37;;;;;;;2.28;1.75;;;;;;;17.90;34.25;96748.41;5074101;28;20053;-62
2023/03/19 11:23:15;;;;;;;1.95;1.67;;;;;;;18.01;35.04;96752.16;5073288;28;20084;-58
2023/03/19 11:25:50;;;;;;;2.15;1.50;;;;;;;18.24;33.99;96744.53;5075249;28;20490;-57
2023/03/19 11:28:21;;;;;;;1.92;1.67;;;;;;;18.39;32.52;96735.56;5093629;28;20493;-60
2023/03/19 11:30:59;;;;;;;2.03;1.70;;;;;;;18.47;34.33;96735.06;5093764;28;20045;-58
2023/03/19 11:34:09;;;;;;;3.78;1.70;;;;;;;18.63;32.74;96731.38;5093625;28;20132;-65
2023/03/19 11:36:49;;;;;;;2.27;1.70;;;;;;;18.38;32.46;96739.16;5093316;28;20135;-58
2023/03/19 11:39:27;;;;;;;2.80;1.80;;;;;;;18.30;32.98;96734.38;5094172;28;20094;-53
2023/03/19 11:42:09;;;;;;;3.22;2.00;;;;;;;18.24;32.68;96734.78;5092981;28;20080;-63
2023/03/19 11:44:47;;;;;;;4.43;1.88;;;;;;;17.83;32.88;96725.94;5093415;28;20081;-57
2023/03/19 11:47:27;;;;;;;2.92;1.92;;;;;;;17.69;33.76;96729.47;5093913;28;20094;-64